Athens, Maine
Current Conditions -  °F | °C
As of 6:55 PM on Thursday 18 Dec 2014 (Local Time) from KWVL Reporting Station
Overcast Overcast  
Wind Chill: 30°   Ceiling: 3900
Heat Index: 34°   Visibility: 10mi
Dew Point: 25°   Wind: 5mph
Humidity: 70%   Direction: 260°W
Pressure: 29.72"   Gusts: NA
Location:  44.92°N, 69.67°W
Report Text: KWVL 182355Z 26004KT 10SM OVC039 01/M04 A2972 RMK AO1 10020 20000 400200000 52017
Loading
Personal Weather Stations






























Interactive Weather Map New forecast layout! Learn more

10-Day Weather Forecast

Advertisements
Track Severe Weather on mobile